createdAt,value
2022-10-12T00:06:05.053Z,96.87
2022-10-12T00:12:07.076Z,97.74
2022-10-12T00:18:08.968Z,97.46
2022-10-12T00:24:10.908Z,98.97
2022-10-12T00:30:13.439Z,98.18
2022-10-12T00:36:18.391Z,98.67
2022-10-12T00:42:21.081Z,100.00
2022-10-12T00:48:23.627Z,99.46
2022-10-12T00:54:35.011Z,99.21
2022-10-12T01:00:38.974Z,98.98
2022-10-12T01:06:41.458Z,99.54
2022-10-12T01:12:47.102Z,99.94
2022-10-12T01:18:58.470Z,100.00
2022-10-12T01:25:22.451Z,100.00
2022-10-12T01:39:27.073Z,98.91
2022-10-12T01:45:28.997Z,100.00
2022-10-12T01:52:21.854Z,100.00
2022-10-12T01:58:38.654Z,100.00
2022-10-12T02:04:52.052Z,100.00
2022-10-12T02:11:10.505Z,100.00
2022-10-12T02:17:17.184Z,99.72
2022-10-12T02:23:21.684Z,100.00
2022-10-12T02:29:36.470Z,99.83
2022-10-12T02:35:54.604Z,100.00
2022-10-12T02:42:03.991Z,100.00
2022-10-12T02:48:09.208Z,100.00
2022-10-12T02:54:12.269Z,100.00
2022-10-12T03:00:14.977Z,100.00
2022-10-12T03:06:16.925Z,100.00
2022-10-12T03:12:18.849Z,100.00
2022-10-12T03:18:20.760Z,99.66
2022-10-12T03:24:22.757Z,99.66
2022-10-12T03:30:24.628Z,99.77
2022-10-12T03:36:29.514Z,99.65
2022-10-12T03:42:31.534Z,99.87
2022-10-12T03:48:33.612Z,99.71
2022-10-12T03:55:06.953Z,99.83
2022-10-12T04:01:08.922Z,100.00
2022-10-12T04:07:10.935Z,99.32
2022-10-12T04:13:12.838Z,98.32
2022-10-12T04:19:14.875Z,97.83
2022-10-12T04:25:16.856Z,97.39
2022-10-12T04:31:18.963Z,95.78
2022-10-12T04:37:20.847Z,95.91
2022-10-12T04:43:22.789Z,96.81
2022-10-12T04:49:24.685Z,97.86
2022-10-12T04:55:27.269Z,97.77
2022-10-12T05:01:29.230Z,97.83
2022-10-12T05:07:31.150Z,97.99
2022-10-12T05:13:33.349Z,97.80
2022-10-12T05:19:37.251Z,97.48
2022-10-12T05:25:39.252Z,96.47
2022-10-12T05:31:41.349Z,96.76
2022-10-12T05:37:43.283Z,97.04
2022-10-12T05:43:45.173Z,97.04
2022-10-12T05:49:47.037Z,96.30
2022-10-12T05:55:57.851Z,96.89
2022-10-12T06:01:59.761Z,95.61
2022-10-12T06:08:01.722Z,96.47
2022-10-12T06:14:04.560Z,96.71
2022-10-12T06:20:07.232Z,96.11
2022-10-12T06:26:09.172Z,96.05
2022-10-12T06:32:11.066Z,96.42
2022-10-12T06:38:13.014Z,96.41
2022-10-12T06:44:14.897Z,96.01
2022-10-12T06:50:16.991Z,95.69
2022-10-12T06:56:18.876Z,94.69
2022-10-12T07:02:20.773Z,95.22
2022-10-12T07:08:22.646Z,94.48
2022-10-12T07:14:24.597Z,94.83
2022-10-12T07:20:26.582Z,94.95
2022-10-12T07:26:29.098Z,94.99
2022-10-12T07:32:31.001Z,94.83
2022-10-12T07:38:33.355Z,94.92
2022-10-12T07:44:35.734Z,95.29
2022-10-12T07:50:38.588Z,94.72
2022-10-12T07:56:40.541Z,95.41
2022-10-12T08:02:42.528Z,96.15
2022-10-12T08:08:51.518Z,96.44
2022-10-12T08:14:53.418Z,96.90
2022-10-12T08:20:55.375Z,97.23
2022-10-12T08:27:01.186Z,97.17
2022-10-12T08:33:06.924Z,97.63
2022-10-12T08:39:12.137Z,98.23
2022-10-12T08:45:21.549Z,98.99
2022-10-12T08:51:44.027Z,99.65
2022-10-12T08:57:49.195Z,99.69
2022-10-12T09:04:16.432Z,100.00
2022-10-12T09:10:45.981Z,100.00
2022-10-12T09:16:51.325Z,100.00
2022-10-12T09:23:18.125Z,100.00
2022-10-12T09:29:38.778Z,100.00
2022-10-12T09:35:46.918Z,100.00
2022-10-12T09:41:52.651Z,99.98
2022-10-12T09:48:16.419Z,98.56
2022-10-12T09:54:23.344Z,97.56
2022-10-12T10:00:58.453Z,95.04
2022-10-12T10:07:35.352Z,94.32
2022-10-12T10:13:38.789Z,93.23
2022-10-12T10:19:47.925Z,90.91
2022-10-12T10:26:20.085Z,86.84
2022-10-12T10:32:29.134Z,85.70
2022-10-12T10:38:45.571Z,81.61
2022-10-12T10:45:08.679Z,79.31
2022-10-12T10:51:10.598Z,77.66
2022-10-12T10:57:22.261Z,74.27
2022-10-12T11:03:47.100Z,71.20
2022-10-12T11:09:57.899Z,65.70
2022-10-12T11:16:27.560Z,61.09
2022-10-12T11:22:50.246Z,51.68
2022-10-12T11:29:21.230Z,45.86
2022-10-12T11:35:36.700Z,43.23
2022-10-12T11:48:01.059Z,45.11
2022-10-12T11:54:41.256Z,42.33
2022-10-12T12:01:10.631Z,41.72
2022-10-12T12:07:46.504Z,40.01
2022-10-12T12:13:48.647Z,38.63
2022-10-12T12:20:23.880Z,36.22
2022-10-12T12:26:29.568Z,33.79
2022-10-12T12:32:53.877Z,32.01
2022-10-12T12:38:56.374Z,31.02
2022-10-12T12:45:18.410Z,31.38
2022-10-12T12:51:37.707Z,32.15
2022-10-12T12:58:12.729Z,30.14
2022-10-12T13:04:36.389Z,30.48
2022-10-12T13:11:27.993Z,31.15
2022-10-12T13:17:51.692Z,30.95
2022-10-12T13:24:25.461Z,27.90
2022-10-12T13:30:39.157Z,26.61
2022-10-12T13:37:01.697Z,27.14
2022-10-12T13:43:31.743Z,31.58
2022-10-12T13:49:42.169Z,36.41
2022-10-12T13:56:05.791Z,34.54
2022-10-12T14:02:31.248Z,37.41
2022-10-12T14:08:35.200Z,42.74
2022-10-12T14:14:40.368Z,45.16
2022-10-12T14:20:42.370Z,47.66
2022-10-12T14:26:52.426Z,52.32
2022-10-12T14:33:08.037Z,54.51
2022-10-12T14:39:14.321Z,54.35
2022-10-12T14:45:26.437Z,54.76
2022-10-12T14:51:28.779Z,53.76
2022-10-12T14:57:32.311Z,53.72
2022-10-12T15:03:34.163Z,53.80
2022-10-12T15:09:36.069Z,52.62
2022-10-12T15:15:47.002Z,52.42
2022-10-12T15:21:49.004Z,56.04
2022-10-12T15:27:51.076Z,56.82
2022-10-12T15:33:53.267Z,56.44
2022-10-12T15:39:55.495Z,51.64
2022-10-12T15:45:59.560Z,47.82
2022-10-12T15:52:19.982Z,45.58
2022-10-12T15:58:59.518Z,45.55
2022-10-12T16:05:02.471Z,50.51
2022-10-12T16:11:37.758Z,57.57
2022-10-12T16:17:40.341Z,63.42
2022-10-12T16:23:42.339Z,67.65
2022-10-12T16:29:44.224Z,70.54
2022-10-12T16:35:46.262Z,72.36
2022-10-12T16:41:48.141Z,74.64
2022-10-12T16:47:50.561Z,75.81
2022-10-12T16:53:56.207Z,76.99
2022-10-12T16:59:58.774Z,78.31
2022-10-12T17:06:00.947Z,79.16
2022-10-12T17:12:03.525Z,80.20
2022-10-12T17:18:15.446Z,80.16
2022-10-12T17:24:20.132Z,80.97
2022-10-12T17:30:23.841Z,80.56
2022-10-12T17:36:59.077Z,81.00
2022-10-12T17:43:01.426Z,81.05
2022-10-12T17:49:04.954Z,81.04
2022-10-12T17:55:19.198Z,80.57
2022-10-12T18:01:35.401Z,81.53
2022-10-12T18:07:40.982Z,82.23
2022-10-12T18:13:48.417Z,81.77
2022-10-12T18:19:50.486Z,82.94
2022-10-12T18:25:55.422Z,82.92
2022-10-12T18:31:57.880Z,83.36
2022-10-12T18:38:02.763Z,83.98
2022-10-12T18:44:05.158Z,84.69
2022-10-12T18:50:07.972Z,85.34
2022-10-12T18:56:10.940Z,84.96
2022-10-12T19:02:17.471Z,86.03
2022-10-12T19:08:19.809Z,86.88
2022-10-12T19:14:22.100Z,87.40
2022-10-12T19:20:24.036Z,88.12
2022-10-12T19:26:27.998Z,88.33
2022-10-12T19:32:30.020Z,88.35
2022-10-12T19:38:32.045Z,87.94
2022-10-12T19:44:34.337Z,87.76
2022-10-12T19:50:36.349Z,88.05
2022-10-12T19:56:48.905Z,87.75
2022-10-12T20:02:54.976Z,87.83
2022-10-12T20:09:03.829Z,87.35
2022-10-12T20:15:06.756Z,86.56
2022-10-12T20:21:11.316Z,85.96
2022-10-12T20:27:13.298Z,85.35
2022-10-12T20:33:16.264Z,84.69
2022-10-12T20:39:19.180Z,83.69
2022-10-12T20:45:21.194Z,84.32
2022-10-12T20:51:36.202Z,84.26
2022-10-12T20:57:39.737Z,85.15
2022-10-12T21:03:42.385Z,86.10
2022-10-12T21:09:44.920Z,84.93
2022-10-12T21:15:54.805Z,85.29
2022-10-12T21:21:56.706Z,85.61
2022-10-12T21:27:58.566Z,86.06
2022-10-12T21:34:05.161Z,86.42
2022-10-12T21:40:09.450Z,86.41
2022-10-12T21:46:21.931Z,86.67
2022-10-12T21:52:23.888Z,87.16
2022-10-12T21:58:26.351Z,86.34
2022-10-12T22:04:28.772Z,87.46
2022-10-12T22:10:30.733Z,87.58
2022-10-12T22:16:36.771Z,87.53
2022-10-12T22:22:38.764Z,88.28
2022-10-12T22:28:44.805Z,88.24
2022-10-12T22:34:46.773Z,87.68
2022-10-12T22:40:55.703Z,87.98
2022-10-12T22:46:57.806Z,88.27
2022-10-12T22:52:59.696Z,87.25
2022-10-12T22:59:07.241Z,87.24
2022-10-12T23:05:10.965Z,88.23
2022-10-12T23:11:24.569Z,88.34
2022-10-12T23:17:26.740Z,89.18
2022-10-12T23:23:29.138Z,89.83
2022-10-12T23:29:31.025Z,90.23
2022-10-12T23:35:33.849Z,90.84
2022-10-12T23:41:35.776Z,90.64
2022-10-12T23:47:38.074Z,91.68
2022-10-12T23:53:42.053Z,91.28
2022-10-12T23:59:47.111Z,91.17
